Time;durP1;ratioP1;P1;durP2;ratioP2;P2;SDS_P1;SDS_P2;PMS_P1;PMS_P2;Temp;Humidity;BMP_temperature;BMP_pressure;BME280_temperature;BME280_humidity;BME280_pressure;Samples;Min_cycle;Max_cycle;Signal;HPM_P1;HPM_P2
2022/02/24 00:01:55;;;;;;;;;;;;;;;16.00;44.56;99829.12;4411112;32;20005;-72
2022/02/24 00:04:20;;;;;;;;;;;;;;;16.43;44.21;99836.62;4411785;32;20003;-71
2022/02/24 00:06:46;;;;;;;;;;;;;;;16.14;44.21;99850.94;4413187;32;19984;-71
2022/02/24 00:09:12;;;;;;;;;;;;;;;16.05;44.01;99834.09;4414338;32;19972;-71
2022/02/24 00:11:37;;;;;;;;;;;;;;;15.40;44.47;99834.78;4412830;32;20057;-72
2022/02/24 00:14:03;;;;;;;;;;;;;;;14.76;44.41;99831.13;4414891;32;20016;-72
2022/02/24 00:16:29;;;;;;;;;;;;;;;15.13;44.12;99830.19;4411971;32;20008;-70
2022/02/24 00:18:54;;;;;;;;;;;;;;;14.98;44.48;99849.28;4413098;32;20751;-70
2022/02/24 00:21:22;;;;;;;;;;;;;;;15.07;44.13;99831.38;4412451;32;20016;-71
2022/02/24 00:23:48;;;;;;;;;;;;;;;14.84;44.12;99813.25;4414039;32;20303;-71
2022/02/24 00:26:14;;;;;;;;;;;;;;;15.02;43.84;99815.06;4411139;32;21081;-71
2022/02/24 00:28:40;;;;;;;;;;;;;;;15.26;43.44;99808.00;4413009;32;20056;-71
2022/02/24 00:31:08;;;;;;;;;;;;;;;15.17;44.02;99810.16;4411846;32;20338;-72
2022/02/24 00:33:34;;;;;;;;;;;;;;;15.08;43.72;99807.44;4416171;32;20399;-71
2022/02/24 00:35:59;;;;;;;;;;;;;;;15.01;43.79;99797.31;4410649;32;20334;-72
2022/02/24 00:38:25;;;;;;;;;;;;;;;14.97;43.76;99790.28;4414278;32;19957;-71
2022/02/24 00:40:51;;;;;;;;;;;;;;;14.91;44.04;99780.91;4419759;32;19969;-71
2022/02/24 00:43:16;;;;;;;;;;;;;;;15.16;43.69;99794.44;4421747;32;19953;-71
2022/02/24 00:45:42;;;;;;;;;;;;;;;15.24;43.69;99778.56;4415789;32;20014;-72
2022/02/24 00:48:10;;;;;;;;;;;;;;;15.09;44.14;99770.13;4417638;32;20342;-72
2022/02/24 00:50:37;;;;;;;;;;;;;;;15.13;44.15;99778.41;4414766;32;19989;-72
2022/02/24 00:53:02;;;;;;;;;;;;;;;15.06;44.36;99778.81;4417794;32;20295;-72
2022/02/24 00:55:28;;;;;;;;;;;;;;;15.50;43.36;99759.63;4412349;32;19971;-72
2022/02/24 00:57:53;;;;;;;;;;;;;;;15.06;43.91;99751.25;4418555;32;19975;-72
2022/02/24 01:00:19;;;;;;;;;;;;;;;15.46;43.63;99753.38;4416321;32;20378;-72
2022/02/24 01:02:45;;;;;;;;;;;;;;;15.56;43.01;99760.50;4417502;32;19953;-72
2022/02/24 01:05:11;;;;;;;;;;;;;;;15.56;43.46;99758.41;4414463;32;19985;-72
2022/02/24 01:07:36;;;;;;;;;;;;;;;15.65;43.10;99752.59;4415121;32;19968;-72
2022/02/24 01:10:03;;;;;;;;;;;;;;;15.58;43.07;99743.75;4415661;32;20004;-72
2022/02/24 01:12:29;;;;;;;;;;;;;;;15.77;42.64;99742.16;4416910;32;20400;-72
2022/02/24 01:14:54;;;;;;;;;;;;;;;15.68;43.12;99736.66;4416137;32;20021;-72
2022/02/24 01:17:20;;;;;;;;;;;;;;;15.71;42.76;99735.69;4415520;32;20008;-72
2022/02/24 01:19:48;;;;;;;;;;;;;;;15.91;42.43;99732.81;4417395;32;21067;-72
2022/02/24 01:22:15;;;;;;;;;;;;;;;16.15;42.04;99744.66;4414322;32;20136;-72
2022/02/24 01:24:41;;;;;;;;;;;;;;;15.92;41.95;99737.97;4412333;32;20050;-72
2022/02/24 01:27:06;;;;;;;;;;;;;;;15.96;41.82;99746.28;4402634;32;20437;-72
2022/02/24 01:29:32;;;;;;;;;;;;;;;16.38;41.19;99748.50;4417434;32;20885;-72
2022/02/24 01:31:58;;;;;;;;;;;;;;;16.31;40.83;99748.94;4414921;32;20036;-72
2022/02/24 01:34:27;;;;;;;;;;;;;;;16.28;40.84;99732.91;4417064;32;19954;-72
2022/02/24 01:36:52;;;;;;;;;;;;;;;16.51;40.55;99735.47;4419845;32;19972;-72
2022/02/24 01:39:18;;;;;;;;;;;;;;;15.80;40.68;99744.00;4416098;32;20015;-72
2022/02/24 01:41:44;;;;;;;;;;;;;;;15.74;40.91;99748.87;4417664;32;19993;-72
2022/02/24 01:44:11;;;;;;;;;;;;;;;15.64;41.26;99751.06;4414143;32;20299;-72
2022/02/24 01:46:37;;;;;;;;;;;;;;;15.91;41.25;99747.78;4417128;32;20002;-73
2022/02/24 01:49:03;;;;;;;;;;;;;;;16.04;41.53;99753.06;4416262;32;20452;-72
2022/02/24 01:51:29;;;;;;;;;;;;;;;15.99;41.62;99742.44;4417301;32;21059;-73
2022/02/24 01:53:54;;;;;;;;;;;;;;;16.02;41.63;99723.62;4413261;32;19996;-73
2022/02/24 01:56:20;;;;;;;;;;;;;;;16.15;41.02;99724.81;4413615;32;20005;-73
2022/02/24 01:58:45;;;;;;;;;;;;;;;16.05;41.37;99725.47;4416899;32;20412;-73
2022/02/24 02:01:11;;;;;;;;;;;;;;;15.65;41.49;99709.31;4416989;32;19983;-73
2022/02/24 02:03:39;;;;;;;;;;;;;;;15.77;41.64;99722.31;4414263;32;20004;-73
2022/02/24 02:06:04;;;;;;;;;;;;;;;15.55;41.35;99708.66;4414066;32;20587;-73
2022/02/24 02:08:32;;;;;;;;;;;;;;;15.78;41.32;99695.53;4402345;32;19993;-73
2022/02/24 02:10:57;;;;;;;;;;;;;;;15.47;41.30;99698.25;4419374;32;20009;-73
2022/02/24 02:13:23;;;;;;;;;;;;;;;15.46;41.44;99703.13;4418533;32;20009;-73
2022/02/24 02:15:49;;;;;;;;;;;;;;;15.20;41.62;99698.63;4411951;32;21305;-73
2022/02/24 02:18:15;;;;;;;;;;;;;;;15.21;41.71;99692.47;4415507;32;19993;-73
2022/02/24 02:20:41;;;;;;;;;;;;;;;15.90;nan;99697.97;4418970;32;19990;-73
2022/02/24 02:23:07;;;;;;;;;;;;;;;15.63;41.58;99695.63;4414795;32;19977;-73
2022/02/24 02:25:32;;;;;;;;;;;;;;;15.57;41.37;99703.28;4400929;32;20000;-73
2022/02/24 02:27:58;;;;;;;;;;;;;;;15.76;40.87;99676.16;4401157;32;19964;-73
2022/02/24 02:30:23;;;;;;;;;;;;;;;16.02;41.03;99671.25;4415461;32;20019;-73
2022/02/24 02:32:49;;;;;;;;;;;;;;;15.99;41.18;99665.81;4417136;32;21000;-73
2022/02/24 02:35:15;;;;;;;;;;;;;;;15.85;41.14;99644.00;4414928;32;19997;-73
2022/02/24 02:37:40;;;;;;;;;;;;;;;15.69;41.38;99645.41;4415994;32;20057;-73
2022/02/24 02:40:06;;;;;;;;;;;;;;;15.96;41.33;99638.47;4415842;32;20001;-73
2022/02/24 02:42:32;;;;;;;;;;;;;;;15.81;41.59;99629.28;4415952;32;19953;-73
2022/02/24 02:44:57;;;;;;;;;;;;;;;15.90;41.57;99626.28;4413235;32;20241;-73
2022/02/24 02:47:23;;;;;;;;;;;;;;;16.14;41.56;99606.84;4414467;32;20390;-73
2022/02/24 02:49:48;;;;;;;;;;;;;;;16.10;41.31;99605.56;4414764;32;20010;-73
2022/02/24 02:52:14;;;;;;;;;;;;;;;16.01;41.47;99597.97;4418253;32;19957;-73
2022/02/24 02:54:40;;;;;;;;;;;;;;;16.17;41.31;99603.00;4417528;32;20013;-73
2022/02/24 02:57:06;;;;;;;;;;;;;;;16.13;41.61;99598.88;4414650;32;19997;-73
2022/02/24 02:59:32;;;;;;;;;;;;;;;16.03;41.35;99609.63;4414576;32;20005;-73
2022/02/24 03:01:58;;;;;;;;;;;;;;;16.18;41.31;99609.47;4417112;32;20013;-73
2022/02/24 03:04:23;;;;;;;;;;;;;;;16.36;41.25;99598.53;4415990;32;20335;-73
2022/02/24 03:06:49;;;;;;;;;;;;;;;16.33;41.33;99599.53;4413184;32;20595;-73
2022/02/24 03:09:14;;;;;;;;;;;;;;;16.10;41.35;99597.81;4414451;32;19965;-73
2022/02/24 03:11:43;;;;;;;;;;;;;;;16.01;41.86;99592.31;4414974;32;19957;-73
2022/02/24 03:14:08;;;;;;;;;;;;;;;15.81;42.17;99589.56;4412566;32;20387;-73
2022/02/24 03:16:34;;;;;;;;;;;;;;;15.84;41.96;99589.31;4411934;32;19971;-73
2022/02/24 03:19:01;;;;;;;;;;;;;;;15.61;42.52;99581.91;4413632;32;19989;-73
2022/02/24 03:21:27;;;;;;;;;;;;;;;15.75;42.14;99572.50;4414130;32;19979;-73
2022/02/24 03:23:52;;;;;;;;;;;;;;;15.93;41.86;99574.19;4416221;32;19969;-72
2022/02/24 03:26:18;;;;;;;;;;;;;;;15.80;41.75;99577.44;4411471;32;20021;-72
2022/02/24 03:28:44;;;;;;;;;;;;;;;15.89;41.88;99571.56;4412482;32;20001;-72
2022/02/24 03:31:09;;;;;;;;;;;;;;;15.64;41.76;99563.88;4413529;32;20008;-72
2022/02/24 03:33:35;;;;;;;;;;;;;;;15.88;41.75;99567.19;4415399;32;19996;-72
2022/02/24 03:36:01;;;;;;;;;;;;;;;15.49;42.60;99571.72;4415257;32;20419;-72
2022/02/24 03:38:27;;;;;;;;;;;;;;;15.73;42.25;99574.25;4415509;32;20066;-72
2022/02/24 03:40:52;;;;;;;;;;;;;;;15.89;41.89;99557.41;4412739;32;20312;-72
2022/02/24 03:43:18;;;;;;;;;;;;;;;15.94;41.66;99561.56;4415965;32;20344;-72
2022/02/24 03:45:44;;;;;;;;;;;;;;;15.90;41.94;99555.34;4412960;32;20307;-72
2022/02/24 03:48:11;;;;;;;;;;;;;;;15.85;41.89;99565.38;4413716;32;20000;-72
2022/02/24 03:50:37;;;;;;;;;;;;;;;15.77;41.98;99561.41;4412870;32;20649;-72
2022/02/24 03:53:02;;;;;;;;;;;;;;;15.13;43.20;99557.38;4413018;32;19987;-71
2022/02/24 03:55:28;;;;;;;;;;;;;;;15.50;42.59;99547.75;4415598;32;19964;-71
2022/02/24 03:57:53;;;;;;;;;;;;;;;15.42;42.69;99532.47;4411252;32;19982;-71
2022/02/24 04:00:20;;;;;;;;;;;;;;;15.34;42.73;99536.25;4413519;32;20595;-71
2022/02/24 04:02:46;;;;;;;;;;;;;;;15.16;43.24;99542.22;4412175;32;20001;-71
2022/02/24 04:05:13;;;;;;;;;;;;;;;15.09;43.47;99545.47;4414559;32;20000;-71
2022/02/24 04:07:38;;;;;;;;;;;;;;;15.43;42.99;99530.41;4414639;32;19983;-71
2022/02/24 04:10:05;;;;;;;;;;;;;;;15.37;43.04;99529.59;4414381;32;19962;-71
2022/02/24 04:12:30;;;;;;;;;;;;;;;15.22;42.63;99531.72;4416556;32;19991;-71
2022/02/24 04:14:56;;;;;;;;;;;;;;;15.10;42.46;99541.38;4412827;32;20001;-71
2022/02/24 04:17:22;;;;;;;;;;;;;;;14.97;42.50;99521.16;4412314;32;20009;-71
2022/02/24 04:19:48;;;;;;;;;;;;;;;15.29;41.58;99511.44;4408624;32;19986;-71
2022/02/24 04:22:13;;;;;;;;;;;;;;;15.30;41.21;99521.50;4412889;32;20053;-71
2022/02/24 04:24:39;;;;;;;;;;;;;;;15.11;40.81;99540.88;4414710;32;20433;-71
2022/02/24 04:27:06;;;;;;;;;;;;;;;14.86;40.74;99543.66;4413935;32;19961;-71
2022/02/24 04:29:31;;;;;;;;;;;;;;;14.90;40.18;99532.88;4411446;32;20498;-71
2022/02/24 04:31:57;;;;;;;;;;;;;;;15.24;39.46;99532.78;4411965;32;19992;-71
2022/02/24 04:34:23;;;;;;;;;;;;;;;15.01;39.74;99541.53;4415926;32;19954;-71
2022/02/24 04:36:48;;;;;;;;;;;;;;;15.00;39.74;99540.00;4413584;32;19985;-71
2022/02/24 04:39:14;;;;;;;;;;;;;;;15.32;39.23;99536.75;4413955;32;20009;-71
2022/02/24 04:41:39;;;;;;;;;;;;;;;14.77;39.70;99518.31;4416065;32;20001;-71
2022/02/24 04:44:05;;;;;;;;;;;;;;;15.14;39.38;99510.75;4412321;32;19993;-71
2022/02/24 04:46:31;;;;;;;;;;;;;;;15.25;39.06;99513.72;4414041;32;19988;-71
2022/02/24 04:48:57;;;;;;;;;;;;;;;14.57;39.65;99519.09;4412315;32;19959;-71
2022/02/24 04:51:23;;;;;;;;;;;;;;;14.85;38.78;99525.88;4398970;32;20005;-71
2022/02/24 04:53:48;;;;;;;;;;;;;;;14.27;39.19;99533.88;4399680;32;19967;-71
2022/02/24 04:56:16;;;;;;;;;;;;;;;14.58;39.52;99519.88;4411618;32;20477;-71
2022/02/24 04:58:41;;;;;;;;;;;;;;;14.43;39.02;99519.16;4412695;32;20008;-71
2022/02/24 05:01:07;;;;;;;;;;;;;;;14.27;38.81;99505.56;4418530;32;20358;-71
2022/02/24 05:03:32;;;;;;;;;;;;;;;14.34;39.07;99502.31;4413986;32;20456;-70
2022/02/24 05:05:58;;;;;;;;;;;;;;;14.52;38.98;99510.53;4413453;32;20017;-71
2022/02/24 05:08:23;;;;;;;;;;;;;;;14.71;38.66;99509.78;4410445;32;20414;-71
2022/02/24 05:10:49;;;;;;;;;;;;;;;14.42;39.44;99511.97;4413554;32;20001;-71
2022/02/24 05:13:15;;;;;;;;;;;;;;;14.53;39.42;99510.06;4412669;32;20031;-71
2022/02/24 05:15:41;;;;;;;;;;;;;;;14.59;39.52;99499.56;4414681;32;20016;-71
2022/02/24 05:18:07;;;;;;;;;;;;;;;14.66;39.21;99506.88;4413010;32;19957;-71
2022/02/24 05:20:33;;;;;;;;;;;;;;;14.32;40.32;99502.81;4412382;32;19961;-71
2022/02/24 05:22:59;;;;;;;;;;;;;;;14.61;39.86;99477.22;4416028;32;20012;-71
2022/02/24 05:25:25;;;;;;;;;;;;;;;14.65;39.92;99480.59;4413968;32;19954;-71
2022/02/24 05:27:53;;;;;;;;;;;;;;;14.56;40.06;99477.91;4418720;32;20007;-71
2022/02/24 05:30:18;;;;;;;;;;;;;;;14.43;39.77;99474.69;4415285;32;20018;-71
2022/02/24 05:32:44;;;;;;;;;;;;;;;14.58;40.06;99488.75;4418161;32;20255;-71
2022/02/24 05:35:10;;;;;;;;;;;;;;;14.55;39.76;99487.69;4417700;32;19945;-71
2022/02/24 05:37:35;;;;;;;;;;;;;;;14.35;40.03;99484.06;4416166;32;19961;-71
2022/02/24 05:40:02;;;;;;;;;;;;;;;14.24;40.28;99481.09;4418227;32;20004;-71
2022/02/24 05:42:30;;;;;;;;;;;;;;;14.44;39.91;99481.09;4414335;32;20448;-71
2022/02/24 05:44:56;;;;;;;;;;;;;;;14.57;40.06;99479.47;4414991;32;20024;-70
2022/02/24 05:47:22;;;;;;;;;;;;;;;14.52;40.43;99473.75;4418167;32;19992;-70
2022/02/24 05:49:47;;;;;;;;;;;;;;;14.05;41.26;99467.19;4414349;32;20000;-71
2022/02/24 05:52:13;;;;;;;;;;;;;;;14.51;41.16;99492.00;4415664;32;19995;-71
2022/02/24 05:54:38;;;;;;;;;;;;;;;14.15;41.88;99479.16;4415560;32;20393;-71
2022/02/24 05:57:04;;;;;;;;;;;;;;;14.31;41.41;99475.00;4415919;32;20001;-71
2022/02/24 05:59:29;;;;;;;;;;;;;;;14.33;41.11;99469.66;4415431;32;19953;-70
2022/02/24 06:01:56;;;;;;;;;;;;;;;13.58;41.75;99473.16;4403041;32;19994;-70
2022/02/24 06:04:21;;;;;;;;;;;;;;;13.27;41.70;99475.72;4415792;32;19976;-70
2022/02/24 06:06:48;;;;;;;;;;;;;;;13.08;42.44;99459.44;4412455;32;20300;-70
2022/02/24 06:09:13;;;;;;;;;;;;;;;12.70;42.99;99468.69;4416545;32;20027;-71
2022/02/24 06:11:39;;;;;;;;;;;;;;;12.63;43.45;99465.47;4414027;32;19946;-70
2022/02/24 06:14:04;;;;;;;;;;;;;;;12.29;43.90;99475.28;4415893;32;19971;-71
2022/02/24 06:16:30;;;;;;;;;;;;;;;13.17;43.38;99471.44;4414920;32;19985;-71
2022/02/24 06:18:56;;;;;;;;;;;;;;;13.34;43.15;99460.37;4413362;32;20438;-71
2022/02/24 06:21:21;;;;;;;;;;;;;;;13.50;43.29;99462.75;4413972;32;19995;-71
2022/02/24 06:23:47;;;;;;;;;;;;;;;13.31;43.66;99464.97;4415861;32;19990;-71
2022/02/24 06:26:13;;;;;;;;;;;;;;;13.35;43.84;99459.91;4415800;32;19985;-71
2022/02/24 06:28:38;;;;;;;;;;;;;;;13.52;43.72;99458.16;4415744;32;20406;-71
2022/02/24 06:31:04;;;;;;;;;;;;;;;13.35;43.52;99451.44;4415443;32;20593;-71
2022/02/24 06:33:29;;;;;;;;;;;;;;;13.43;43.18;99446.94;4415716;32;20053;-71
2022/02/24 06:35:55;;;;;;;;;;;;;;;13.80;42.36;99452.91;4415743;32;20327;-71
2022/02/24 06:38:20;;;;;;;;;;;;;;;13.78;42.35;99459.06;4415231;32;19989;-70
2022/02/24 06:40:46;;;;;;;;;;;;;;;13.83;42.15;99454.75;4416671;32;20335;-70
2022/02/24 06:43:11;;;;;;;;;;;;;;;13.78;41.71;99461.88;4416117;32;20030;-70
2022/02/24 06:45:36;;;;;;;;;;;;;;;13.43;41.91;99465.94;4398344;32;20062;-70
2022/02/24 06:48:02;;;;;;;;;;;;;;;13.38;42.00;99455.34;4412956;32;20958;-70
2022/02/24 06:50:27;;;;;;;;;;;;;;;13.50;41.84;99452.19;4415217;32;20471;-70
2022/02/24 06:52:53;;;;;;;;;;;;;;;13.52;41.88;99458.16;4414788;32;19957;-70
2022/02/24 06:55:19;;;;;;;;;;;;;;;13.00;42.29;99466.72;4414595;32;20103;-70
2022/02/24 06:57:46;;;;;;;;;;;;;;;12.94;42.91;99460.94;4412265;32;19957;-71
2022/02/24 07:00:13;;;;;;;;;;;;;;;12.74;43.24;99463.66;4415910;32;20005;-71
2022/02/24 07:02:39;;;;;;;;;;;;;;;12.87;43.33;99461.34;4415926;32;19968;-71
2022/02/24 07:05:05;;;;;;;;;;;;;;;13.61;42.41;99472.16;4415988;32;20333;-71
2022/02/24 07:07:33;;;;;;;;;;;;;;;13.38;42.76;99473.06;4414982;32;20387;-71
2022/02/24 07:09:58;;;;;;;;;;;;;;;13.40;42.38;99481.03;4417392;32;19954;-72
2022/02/24 07:12:24;;;;;;;;;;;;;;;13.21;42.51;99472.00;4413565;32;19949;-72
2022/02/24 07:14:50;;;;;;;;;;;;;;;13.40;42.81;99472.56;4412590;32;20335;-72
2022/02/24 07:17:15;;;;;;;;;;;;;;;13.51;42.64;99479.22;4416151;32;19953;-72
2022/02/24 07:19:41;;;;;;;;;;;;;;;13.06;42.83;99478.91;4413429;32;20019;-72
2022/02/24 07:22:06;;;;;;;;;;;;;;;13.13;42.86;99490.59;4398330;32;20026;-72
2022/02/24 07:24:31;;;;;;;;;;;;;;;13.55;42.55;99493.91;4414701;32;20043;-73
2022/02/24 07:26:57;;;;;;;;;;;;;;;13.08;42.91;99491.28;4414940;32;19961;-73
2022/02/24 07:29:22;;;;;;;;;;;;;;;12.86;43.35;99495.69;4412786;32;20351;-74
2022/02/24 07:31:48;;;;;;;;;;;;;;;12.79;43.71;99485.56;4414044;32;19950;-74
2022/02/24 07:34:13;;;;;;;;;;;;;;;13.12;43.33;99474.91;4411863;32;20055;-74
2022/02/24 07:36:40;;;;;;;;;;;;;;;13.18;42.98;99458.84;4407669;32;20340;-74
2022/02/24 07:39:15;;;;;;;;;;;;;;;13.02;42.89;99436.75;4398633;32;20308;-73
2022/02/24 07:41:41;;;;;;;;;;;;;;;13.02;42.95;99430.31;4408855;32;19989;-75
2022/02/24 07:44:07;;;;;;;;;;;;;;;13.06;42.59;99440.16;4408406;32;20327;-74
2022/02/24 07:46:33;;;;;;;;;;;;;;;13.22;42.71;99439.66;4407359;32;20001;-74
2022/02/24 07:48:59;;;;;;;;;;;;;;;13.16;42.61;99446.50;4394803;32;19957;-73
2022/02/24 07:51:24;;;;;;;;;;;;;;;13.17;42.46;99437.53;4410210;32;19972;-73
2022/02/24 07:53:50;;;;;;;;;;;;;;;13.28;41.98;99442.56;4410831;32;20366;-73
2022/02/24 07:56:16;;;;;;;;;;;;;;;13.49;41.95;99430.84;4405242;32;19961;-73
2022/02/24 07:58:42;;;;;;;;;;;;;;;13.14;41.70;99432.06;4404427;32;20029;-73
2022/02/24 08:01:07;;;;;;;;;;;;;;;13.17;42.03;99429.06;4410521;32;19957;-74
2022/02/24 08:03:33;;;;;;;;;;;;;;;12.99;42.68;99423.59;4405757;32;20332;-73
2022/02/24 08:05:59;;;;;;;;;;;;;;;13.00;42.44;99413.84;4405268;32;20012;-73
2022/02/24 08:08:24;;;;;;;;;;;;;;;13.09;42.01;99419.41;4395745;32;20095;-73
2022/02/24 08:10:50;;;;;;;;;;;;;;;13.27;42.07;99426.88;4408103;32;19992;-73
2022/02/24 08:13:16;;;;;;;;;;;;;;;13.28;42.33;99431.25;4406753;32;19973;-73
2022/02/24 08:15:42;;;;;;;;;;;;;;;13.41;41.72;99435.34;4405208;32;20325;-73
2022/02/24 08:18:08;;;;;;;;;;;;;;;12.98;42.88;99443.81;4407858;32;20012;-73
2022/02/24 08:20:33;;;;;;;;;;;;;;;13.49;42.21;99441.38;4405350;32;20606;-73
2022/02/24 08:23:01;;;;;;;;;;;;;;;13.39;42.53;99443.56;4404897;32;20613;-73
2022/02/24 08:25:28;;;;;;;;;;;;;;;13.17;42.96;99440.34;4406598;32;20885;-74
2022/02/24 08:27:54;;;;;;;;;;;;;;;13.40;42.60;99433.78;4406483;32;19973;-74
2022/02/24 08:30:21;;;;;;;;;;;;;;;13.51;42.39;99431.16;4406001;32;20016;-74
2022/02/24 08:32:48;;;;;;;;;;;;;;;13.37;42.64;99431.94;4406000;32;19961;-74
2022/02/24 08:35:15;;;;;;;;;;;;;;;13.34;42.26;99423.66;4407314;32;20001;-74
2022/02/24 08:37:44;;;;;;;;;;;;;;;13.44;42.56;99430.78;4405875;32;20025;-74
2022/02/24 08:40:11;;;;;;;;;;;;;;;13.78;41.89;99435.69;4405427;32;20037;-72
2022/02/24 08:42:36;;;;;;;;;;;;;;;13.64;41.81;99448.56;4404580;32;20203;-73
2022/02/24 08:45:03;;;;;;;;;;;;;;;13.35;42.37;99442.94;4407669;32;20393;-73
2022/02/24 08:47:28;;;;;;;;;;;;;;;13.25;42.80;99440.72;4407258;32;19985;-72
2022/02/24 08:49:54;;;;;;;;;;;;;;;13.52;42.41;99455.31;4406935;32;19958;-70
2022/02/24 08:52:20;;;;;;;;;;;;;;;13.86;41.64;99445.28;4405924;32;21036;-72
2022/02/24 08:54:46;;;;;;;;;;;;;;;14.03;41.29;99454.81;4407590;32;19991;-72
2022/02/24 08:57:12;;;;;;;;;;;;;;;13.98;41.44;99453.47;4407293;32;19992;-71
2022/02/24 08:59:38;;;;;;;;;;;;;;;14.05;41.21;99461.53;4404900;32;20019;-71
2022/02/24 09:02:04;;;;;;;;;;;;;;;13.80;41.36;99476.31;4409946;32;20089;-71
2022/02/24 09:04:29;;;;;;;;;;;;;;;13.86;41.34;99471.53;4411248;32;20212;-71
2022/02/24 09:06:55;;;;;;;;;;;;;;;14.05;40.89;99464.34;4411094;32;20010;-71
2022/02/24 09:09:24;;;;;;;;;;;;;;;13.94;41.12;99483.97;4409221;32;19985;-71
2022/02/24 09:11:49;;;;;;;;;;;;;;;13.75;41.11;99476.25;4395660;32;20349;-71
2022/02/24 09:14:15;;;;;;;;;;;;;;;13.57;41.61;99471.56;4408498;32;20027;-71
2022/02/24 09:16:43;;;;;;;;;;;;;;;13.71;41.57;99482.09;4409218;32;20000;-70
2022/02/24 09:19:09;;;;;;;;;;;;;;;13.71;41.55;99484.13;4408593;32;19985;-70
2022/02/24 09:21:34;;;;;;;;;;;;;;;13.53;40.99;99495.69;4407745;32;20005;-71
2022/02/24 09:24:00;;;;;;;;;;;;;;;13.80;40.86;99484.81;4409280;32;20012;-71
2022/02/24 09:26:26;;;;;;;;;;;;;;;14.40;39.70;99474.87;4409451;32;20008;-71
2022/02/24 09:28:51;;;;;;;;;;;;;;;14.56;38.66;99479.97;4409425;32;19996;-71
2022/02/24 09:31:17;;;;;;;;;;;;;;;14.70;38.21;99481.94;4410853;32;20074;-71
2022/02/24 09:33:43;;;;;;;;;;;;;;;14.68;37.77;99471.12;4410053;32;20197;-70
2022/02/24 09:36:08;;;;;;;;;;;;;;;15.09;37.27;99471.81;4408138;32;20370;-72
2022/02/24 09:38:34;;;;;;;;;;;;;;;14.37;37.25;99473.81;4410687;32;20501;-72
2022/02/24 09:41:01;;;;;;;;;;;;;;;14.59;37.15;99488.25;4408481;32;20385;-72
2022/02/24 09:43:31;;;;;;;;;;;;;;;14.38;36.60;99466.87;4397287;32;20579;-71
2022/02/24 09:45:59;;;;;;;;;;;;;;;14.18;36.92;99468.91;4405124;32;19973;-72
2022/02/24 09:48:29;;;;;;;;;;;;;;;15.07;36.21;99454.53;4408332;32;20011;-71
2022/02/24 09:50:55;;;;;;;;;;;;;;;14.96;35.25;99471.41;4408810;32;19988;-72
2022/02/24 09:53:21;;;;;;;;;;;;;;;14.61;36.08;99462.28;4413099;32;20367;-71
2022/02/24 09:55:46;;;;;;;;;;;;;;;15.30;35.34;99464.81;4410152;32;19997;-73
2022/02/24 09:58:12;;;;;;;;;;;;;;;14.92;34.60;99460.31;4410147;32;20051;-73
2022/02/24 10:00:38;;;;;;;;;;;;;;;14.83;34.96;99456.88;4412921;32;19976;-74
2022/02/24 10:03:24;;;;;;;;;;;;;;;15.87;33.84;99448.53;4410914;32;19961;-74
2022/02/24 10:05:49;;;;;;;;;;;;;;;15.60;34.20;99457.63;4396563;32;20481;-70
2022/02/24 10:08:14;;;;;;;;;;;;;;;15.41;34.23;99454.38;4409744;32;19965;-71
2022/02/24 10:10:42;;;;;;;;;;;;;;;15.63;33.29;99460.25;4410849;32;20031;-72
2022/02/24 10:15:52;;;;;;;;;;;;;;;17.22;31.94;99456.62;3941362;32;15781609;-72
2022/02/24 10:18:18;;;;;;;;;;;;;;;17.22;31.94;99456.62;4421289;32;19980;-72
2022/02/24 10:23:20;;;;;;;;;;;;;;;16.44;32.44;99428.50;3944996;32;15724110;-72
2022/02/24 10:25:47;;;;;;;;;;;;;;;15.80;32.44;99441.28;4422078;32;20620;-71
2022/02/24 10:28:33;;;;;;;;;;;;;;;16.80;31.88;99470.97;4422778;32;20733;-71
2022/02/24 10:31:04;;;;;;;;;;;;;;;16.58;31.81;99456.69;4423880;32;19991;-70
2022/02/24 10:33:30;;;;;;;;;;;;;;;17.05;31.51;99464.31;4422510;32;20071;-71
2022/02/24 10:36:07;;;;;;;;;;;;;;;17.73;30.29;99495.97;4422258;32;20120;-71
2022/02/24 10:38:42;;;;;;;;;;;;;;;17.98;29.49;99501.91;4423016;32;20393;-71
2022/02/24 10:41:10;;;;;;;;;;;;;;;16.81;31.57;99509.44;4405255;32;19964;-71
2022/02/24 10:44:13;;;;;;;;;;;;;;;16.74;32.41;99521.31;4425700;32;19983;-72
2022/02/24 10:46:40;;;;;;;;;;;;;;;15.29;35.68;99532.06;4422053;32;20016;-72
2022/02/24 10:49:06;;;;;;;;;;;;;;;15.77;35.79;99533.06;4421823;32;19996;-71
2022/02/24 10:51:36;;;;;;;;;;;;;;;13.55;38.31;99552.47;4422158;32;20052;-72
2022/02/24 10:54:06;;;;;;;;;;;;;;;13.41;39.68;99562.50;4424214;32;20012;-72
2022/02/24 10:56:33;;;;;;;;;;;;;;;12.57;41.41;99591.56;4423006;32;20005;-71
2022/02/24 10:59:02;;;;;;;;;;;;;;;12.27;42.57;99572.94;4423265;32;19999;-70
2022/02/24 11:01:29;;;;;;;;;;;;;;;12.21;43.22;99541.78;4422994;32;20039;-71
2022/02/24 11:03:55;;;;;;;;;;;;;;;12.29;43.68;99545.03;4422806;32;20341;-70
2022/02/24 11:06:25;;;;;;;;;;;;;;;12.76;43.08;99545.78;4408562;32;20351;-70
2022/02/24 11:08:51;;;;;;;;;;;;;;;12.69;42.81;99549.00;4406386;32;19994;-70
2022/02/24 11:13:55;;;;;;;;;;;;;;;14.11;41.74;99557.78;3946714;32;15723283;-72
2022/02/24 11:16:21;;;;;;;;;;;;;;;14.97;39.65;99561.56;4419019;32;20033;-71
2022/02/24 11:18:47;;;;;;;;;;;;;;;15.83;37.08;99565.06;4419657;32;20027;-72
2022/02/24 11:21:13;;;;;;;;;;;;;;;15.94;36.96;99601.28;4419135;32;20386;-72
2022/02/24 11:23:44;;;;;;;;;;;;;;;15.57;37.15;99597.56;4418806;32;20375;-70
2022/02/24 11:26:31;;;;;;;;;;;;;;;13.47;40.36;99597.31;4416212;32;19995;-69
2022/02/24 11:29:16;;;;;;;;;;;;;;;12.76;41.79;99593.78;4417220;32;20009;-70
2022/02/24 11:34:38;;;;;;;;;;;;;;;11.45;45.04;99637.22;3968964;32;15721877;-73
2022/02/24 11:37:19;;;;;;;;;;;;;;;11.45;45.04;99637.22;4441742;32;20000;-73
2022/02/24 11:39:44;;;;;;;;;;;;;;;10.81;46.52;99627.97;4440091;32;20019;-73
2022/02/24 11:42:21;;;;;;;;;;;;;;;11.03;46.63;99622.19;4439144;32;19949;-72
2022/02/24 11:44:47;;;;;;;;;;;;;;;11.46;45.74;99608.56;4440589;32;21490;-73
2022/02/24 11:47:13;;;;;;;;;;;;;;;12.26;45.01;99596.75;4439874;32;19994;-72
2022/02/24 11:52:31;;;;;;;;;;;;;;;11.88;44.60;99591.75;3947188;32;15723559;-72
2022/02/24 11:54:58;;;;;;;;;;;;;;;12.21;44.45;99583.31;4408003;32;19988;-72
2022/02/24 11:57:27;;;;;;;;;;;;;;;12.50;43.74;99584.25;4420411;32;20026;-72
2022/02/24 11:59:52;;;;;;;;;;;;;;;12.38;43.15;99587.28;4422287;32;20045;-72
2022/02/24 12:02:18;;;;;;;;;;;;;;;12.16;43.38;99606.50;4421713;32;20017;-71
2022/02/24 12:04:45;;;;;;;;;;;;;;;12.46;42.88;99606.22;4405230;32;20909;-72
2022/02/24 12:10:09;;;;;;;;;;;;;;;13.46;41.76;99645.81;3943606;32;15743572;-73
2022/02/24 12:12:35;;;;;;;;;;;;;;;13.46;41.76;99645.81;4419762;32;19993;-72
2022/02/24 12:15:16;;;;;;;;;;;;;;;12.36;43.78;99637.78;4427622;32;20016;-72
2022/02/24 12:17:46;;;;;;;;;;;;;;;12.93;42.82;99626.00;4409602;32;19997;-73
2022/02/24 12:20:28;;;;;;;;;;;;;;;12.79;42.89;99611.81;4411683;32;19957;-71
2022/02/24 12:22:56;;;;;;;;;;;;;;;13.41;42.72;99616.19;4418386;32;20400;-73
2022/02/24 12:25:24;;;;;;;;;;;;;;;14.46;41.82;99620.09;4425234;32;19997;-74
2022/02/24 12:28:08;;;;;;;;;;;;;;;15.64;39.64;99622.66;4416372;32;20286;-72
2022/02/24 12:30:35;;;;;;;;;;;;;;;16.29;37.01;99624.53;4428282;32;19958;-73
2022/02/24 12:35:41;;;;;;;;;;;;;;;15.68;36.61;99657.25;3947039;32;15728592;-73
2022/02/24 12:38:09;;;;;;;;;;;;;;;15.68;36.61;99657.25;4420021;32;19975;-73
2022/02/24 12:40:38;;;;;;;;;;;;;;;14.47;39.04;99662.06;4415304;32;20417;-71
2022/02/24 12:43:06;;;;;;;;;;;;;;;13.53;39.73;99682.97;4421675;32;19964;-73
2022/02/24 12:45:34;;;;;;;;;;;;;;;13.23;40.64;99703.94;4418163;32;20259;-70
2022/02/24 12:48:00;;;;;;;;;;;;;;;12.37;43.10;99719.13;4418072;32;20257;-69
2022/02/24 12:50:33;;;;;;;;;;;;;;;11.45;44.69;99697.13;4420240;32;19953;-69
2022/02/24 12:53:04;;;;;;;;;;;;;;;11.71;44.26;99680.72;4421490;32;20052;-70
2022/02/24 12:55:31;;;;;;;;;;;;;;;11.99;43.97;99677.38;4416488;32;20175;-70
2022/02/24 12:57:57;;;;;;;;;;;;;;;12.54;43.58;99660.25;4413936;32;19957;-69
2022/02/24 13:00:23;;;;;;;;;;;;;;;13.45;41.80;99662.03;4418076;32;20023;-70
2022/02/24 13:02:49;;;;;;;;;;;;;;;13.80;39.01;99660.13;4415518;32;19970;-70